sensor_id;sensor_type;location;lat;lon;timestamp;temperature;humidity
25668;DHT22;18003;-33.830;151.202;2022-11-14T00:00:21;21.30;99.90
25668;DHT22;18003;-33.830;151.202;2022-11-14T00:02:51;21.30;99.90
25668;DHT22;18003;-33.830;151.202;2022-11-14T00:05:21;21.30;99.90
25668;DHT22;18003;-33.830;151.202;2022-11-14T00:07:51;21.30;99.90
25668;DHT22;18003;-33.830;151.202;2022-11-14T00:10:22;21.40;99.90
25668;DHT22;18003;-33.830;151.202;2022-11-14T00:12:52;21.50;99.90
25668;DHT22;18003;-33.830;151.202;2022-11-14T00:15:22;21.60;99.90
25668;DHT22;18003;-33.830;151.202;2022-11-14T00:17:52;21.60;99.90
25668;DHT22;18003;-33.830;151.202;2022-11-14T00:20:22;21.60;99.90
25668;DHT22;18003;-33.830;151.202;2022-11-14T00:22:52;21.70;99.90
25668;DHT22;18003;-33.830;151.202;2022-11-14T00:25:22;21.70;99.90
25668;DHT22;18003;-33.830;151.202;2022-11-14T00:27:55;21.70;99.90
25668;DHT22;18003;-33.830;151.202;2022-11-14T00:30:23;21.80;99.90
25668;DHT22;18003;-33.830;151.202;2022-11-14T00:32:53;21.80;99.90
25668;DHT22;18003;-33.830;151.202;2022-11-14T00:35:23;21.80;99.90
25668;DHT22;18003;-33.830;151.202;2022-11-14T00:37:53;21.80;99.90
25668;DHT22;18003;-33.830;151.202;2022-11-14T00:40:23;21.80;99.90
25668;DHT22;18003;-33.830;151.202;2022-11-14T00:42:53;21.80;99.90
25668;DHT22;18003;-33.830;151.202;2022-11-14T00:45:24;21.90;99.90
25668;DHT22;18003;-33.830;151.202;2022-11-14T00:47:54;21.90;99.90
25668;DHT22;18003;-33.830;151.202;2022-11-14T00:50:24;21.90;99.90
25668;DHT22;18003;-33.830;151.202;2022-11-14T00:52:54;21.90;99.90
25668;DHT22;18003;-33.830;151.202;2022-11-14T00:55:24;21.90;99.90
25668;DHT22;18003;-33.830;151.202;2022-11-14T00:57:54;21.90;99.90
25668;DHT22;18003;-33.830;151.202;2022-11-14T01:00:25;22.00;99.90
25668;DHT22;18003;-33.830;151.202;2022-11-14T01:02:55;22.00;99.90
25668;DHT22;18003;-33.830;151.202;2022-11-14T01:05:25;21.90;99.90
25668;DHT22;18003;-33.830;151.202;2022-11-14T01:07:56;22.00;99.90
25668;DHT22;18003;-33.830;151.202;2022-11-14T01:10:25;22.00;99.90
25668;DHT22;18003;-33.830;151.202;2022-11-14T01:12:56;22.00;99.90
25668;DHT22;18003;-33.830;151.202;2022-11-14T01:15:25;22.00;99.90
25668;DHT22;18003;-33.830;151.202;2022-11-14T01:17:55;22.00;99.90
25668;DHT22;18003;-33.830;151.202;2022-11-14T01:20:25;22.00;99.90
25668;DHT22;18003;-33.830;151.202;2022-11-14T01:22:55;22.00;99.90
25668;DHT22;18003;-33.830;151.202;2022-11-14T01:25:25;22.00;99.90
25668;DHT22;18003;-33.830;151.202;2022-11-14T01:27:56;22.00;99.90
25668;DHT22;18003;-33.830;151.202;2022-11-14T01:30:26;21.90;99.90
25668;DHT22;18003;-33.830;151.202;2022-11-14T01:32:56;21.90;99.90
25668;DHT22;18003;-33.830;151.202;2022-11-14T01:35:26;21.90;99.90
25668;DHT22;18003;-33.830;151.202;2022-11-14T01:37:56;22.00;99.90
25668;DHT22;18003;-33.830;151.202;2022-11-14T01:40:26;22.00;99.90
25668;DHT22;18003;-33.830;151.202;2022-11-14T01:45:51;22.00;99.90
25668;DHT22;18003;-33.830;151.202;2022-11-14T01:48:26;22.00;99.90
25668;DHT22;18003;-33.830;151.202;2022-11-14T01:50:57;22.00;99.90
25668;DHT22;18003;-33.830;151.202;2022-11-14T01:53:27;22.00;99.90
25668;DHT22;18003;-33.830;151.202;2022-11-14T01:55:59;22.00;99.90
25668;DHT22;18003;-33.830;151.202;2022-11-14T01:58:30;22.10;99.90
25668;DHT22;18003;-33.830;151.202;2022-11-14T02:01:01;22.10;99.90
25668;DHT22;18003;-33.830;151.202;2022-11-14T02:03:34;22.10;99.90
25668;DHT22;18003;-33.830;151.202;2022-11-14T02:06:05;22.10;99.90
25668;DHT22;18003;-33.830;151.202;2022-11-14T02:08:34;22.10;99.90
25668;DHT22;18003;-33.830;151.202;2022-11-14T02:11:07;22.10;99.90
25668;DHT22;18003;-33.830;151.202;2022-11-14T02:13:36;22.20;99.90
25668;DHT22;18003;-33.830;151.202;2022-11-14T02:16:07;22.20;99.90
25668;DHT22;18003;-33.830;151.202;2022-11-14T02:18:37;22.20;99.90
25668;DHT22;18003;-33.830;151.202;2022-11-14T02:21:07;22.20;99.90
25668;DHT22;18003;-33.830;151.202;2022-11-14T02:23:37;22.20;99.90
25668;DHT22;18003;-33.830;151.202;2022-11-14T02:26:07;22.20;99.90
25668;DHT22;18003;-33.830;151.202;2022-11-14T02:28:37;22.20;99.90
25668;DHT22;18003;-33.830;151.202;2022-11-14T02:31:07;22.20;99.90
25668;DHT22;18003;-33.830;151.202;2022-11-14T02:33:37;22.10;99.90
25668;DHT22;18003;-33.830;151.202;2022-11-14T02:36:08;22.20;99.90
25668;DHT22;18003;-33.830;151.202;2022-11-14T02:38:38;22.20;99.90
25668;DHT22;18003;-33.830;151.202;2022-11-14T02:41:08;22.10;99.90
25668;DHT22;18003;-33.830;151.202;2022-11-14T02:43:38;22.20;99.90
25668;DHT22;18003;-33.830;151.202;2022-11-14T02:46:08;22.20;99.90
25668;DHT22;18003;-33.830;151.202;2022-11-14T02:48:38;22.20;99.90
25668;DHT22;18003;-33.830;151.202;2022-11-14T02:51:08;22.20;99.90
25668;DHT22;18003;-33.830;151.202;2022-11-14T02:53:38;22.30;99.90
25668;DHT22;18003;-33.830;151.202;2022-11-14T02:56:08;22.20;99.90
25668;DHT22;18003;-33.830;151.202;2022-11-14T02:58:38;22.30;99.90
25668;DHT22;18003;-33.830;151.202;2022-11-14T03:01:08;22.30;99.90
25668;DHT22;18003;-33.830;151.202;2022-11-14T03:03:38;22.30;99.90
25668;DHT22;18003;-33.830;151.202;2022-11-14T03:06:09;22.40;99.90
25668;DHT22;18003;-33.830;151.202;2022-11-14T03:08:39;22.30;99.90
25668;DHT22;18003;-33.830;151.202;2022-11-14T03:11:10;22.30;99.90
25668;DHT22;18003;-33.830;151.202;2022-11-14T03:13:40;22.30;99.90
25668;DHT22;18003;-33.830;151.202;2022-11-14T03:16:11;22.40;99.90
25668;DHT22;18003;-33.830;151.202;2022-11-14T03:18:42;22.50;99.90
25668;DHT22;18003;-33.830;151.202;2022-11-14T03:21:14;22.50;99.90
25668;DHT22;18003;-33.830;151.202;2022-11-14T03:23:44;22.50;99.90
25668;DHT22;18003;-33.830;151.202;2022-11-14T03:26:15;22.50;99.90
25668;DHT22;18003;-33.830;151.202;2022-11-14T03:28:45;22.50;99.90
25668;DHT22;18003;-33.830;151.202;2022-11-14T03:31:15;22.50;99.90
25668;DHT22;18003;-33.830;151.202;2022-11-14T03:33:45;22.50;99.90
25668;DHT22;18003;-33.830;151.202;2022-11-14T03:36:15;22.40;99.90
25668;DHT22;18003;-33.830;151.202;2022-11-14T03:38:45;22.40;99.90
25668;DHT22;18003;-33.830;151.202;2022-11-14T03:41:15;22.50;99.90
25668;DHT22;18003;-33.830;151.202;2022-11-14T03:43:45;22.50;99.90
25668;DHT22;18003;-33.830;151.202;2022-11-14T03:46:15;22.50;99.90
25668;DHT22;18003;-33.830;151.202;2022-11-14T03:48:45;22.50;99.90
25668;DHT22;18003;-33.830;151.202;2022-11-14T03:51:15;22.50;99.90
25668;DHT22;18003;-33.830;151.202;2022-11-14T03:53:45;22.50;99.90
25668;DHT22;18003;-33.830;151.202;2022-11-14T03:56:15;22.40;99.90
25668;DHT22;18003;-33.830;151.202;2022-11-14T03:58:45;22.50;99.90
25668;DHT22;18003;-33.830;151.202;2022-11-14T04:01:15;22.50;99.90
25668;DHT22;18003;-33.830;151.202;2022-11-14T04:03:45;22.40;99.90
25668;DHT22;18003;-33.830;151.202;2022-11-14T04:06:15;22.40;99.90
25668;DHT22;18003;-33.830;151.202;2022-11-14T04:08:48;22.40;99.90
25668;DHT22;18003;-33.830;151.202;2022-11-14T04:11:19;22.40;99.90
25668;DHT22;18003;-33.830;151.202;2022-11-14T04:13:49;22.40;99.90
25668;DHT22;18003;-33.830;151.202;2022-11-14T04:16:24;22.40;99.90
25668;DHT22;18003;-33.830;151.202;2022-11-14T04:18:50;22.40;99.90
25668;DHT22;18003;-33.830;151.202;2022-11-14T04:21:20;22.40;99.90
25668;DHT22;18003;-33.830;151.202;2022-11-14T04:23:50;22.40;99.90
25668;DHT22;18003;-33.830;151.202;2022-11-14T04:26:20;22.40;99.90
25668;DHT22;18003;-33.830;151.202;2022-11-14T04:28:50;22.50;99.90
25668;DHT22;18003;-33.830;151.202;2022-11-14T04:31:20;22.50;99.90
25668;DHT22;18003;-33.830;151.202;2022-11-14T04:33:50;22.50;99.90
25668;DHT22;18003;-33.830;151.202;2022-11-14T04:36:19;22.40;99.90
25668;DHT22;18003;-33.830;151.202;2022-11-14T04:38:50;22.50;99.90
25668;DHT22;18003;-33.830;151.202;2022-11-14T04:41:20;22.50;99.90
25668;DHT22;18003;-33.830;151.202;2022-11-14T04:43:50;22.50;99.90
25668;DHT22;18003;-33.830;151.202;2022-11-14T04:46:20;22.40;99.90
25668;DHT22;18003;-33.830;151.202;2022-11-14T04:48:50;22.40;99.90
25668;DHT22;18003;-33.830;151.202;2022-11-14T04:51:20;22.40;99.90
25668;DHT22;18003;-33.830;151.202;2022-11-14T04:53:50;22.40;99.90
25668;DHT22;18003;-33.830;151.202;2022-11-14T04:56:20;22.40;99.90
25668;DHT22;18003;-33.830;151.202;2022-11-14T04:58:50;22.40;99.90
25668;DHT22;18003;-33.830;151.202;2022-11-14T05:01:20;22.50;99.90
25668;DHT22;18003;-33.830;151.202;2022-11-14T05:03:50;22.40;99.90
25668;DHT22;18003;-33.830;151.202;2022-11-14T05:06:20;22.50;99.90
25668;DHT22;18003;-33.830;151.202;2022-11-14T05:08:50;22.40;99.90
25668;DHT22;18003;-33.830;151.202;2022-11-14T05:11:22;22.50;99.80
25668;DHT22;18003;-33.830;151.202;2022-11-14T05:13:52;22.50;99.90
25668;DHT22;18003;-33.830;151.202;2022-11-14T05:16:22;22.50;99.50
25668;DHT22;18003;-33.830;151.202;2022-11-14T05:18:53;22.50;99.50
25668;DHT22;18003;-33.830;151.202;2022-11-14T05:21:23;22.50;99.50
25668;DHT22;18003;-33.830;151.202;2022-11-14T05:23:54;22.60;98.60
25668;DHT22;18003;-33.830;151.202;2022-11-14T05:26:24;22.50;98.80
25668;DHT22;18003;-33.830;151.202;2022-11-14T05:28:54;22.60;99.10
25668;DHT22;18003;-33.830;151.202;2022-11-14T05:31:24;22.60;99.20
25668;DHT22;18003;-33.830;151.202;2022-11-14T05:33:54;22.50;99.10
25668;DHT22;18003;-33.830;151.202;2022-11-14T05:36:24;22.50;98.40
25668;DHT22;18003;-33.830;151.202;2022-11-14T05:38:54;22.40;99.20
25668;DHT22;18003;-33.830;151.202;2022-11-14T05:41:25;22.40;98.70
25668;DHT22;18003;-33.830;151.202;2022-11-14T05:43:55;22.40;98.90
25668;DHT22;18003;-33.830;151.202;2022-11-14T05:46:25;22.40;98.10
25668;DHT22;18003;-33.830;151.202;2022-11-14T05:48:55;22.40;99.00
25668;DHT22;18003;-33.830;151.202;2022-11-14T05:51:25;22.40;98.50
25668;DHT22;18003;-33.830;151.202;2022-11-14T05:53:55;22.40;98.20
25668;DHT22;18003;-33.830;151.202;2022-11-14T05:56:25;22.30;98.30
25668;DHT22;18003;-33.830;151.202;2022-11-14T05:58:55;22.30;98.40
25668;DHT22;18003;-33.830;151.202;2022-11-14T06:01:25;22.30;98.90
25668;DHT22;18003;-33.830;151.202;2022-11-14T06:03:55;22.30;98.40
25668;DHT22;18003;-33.830;151.202;2022-11-14T06:06:25;22.30;98.10
25668;DHT22;18003;-33.830;151.202;2022-11-14T06:08:55;22.30;98.30
25668;DHT22;18003;-33.830;151.202;2022-11-14T06:11:25;22.30;98.40
25668;DHT22;18003;-33.830;151.202;2022-11-14T06:13:56;22.30;98.20
25668;DHT22;18003;-33.830;151.202;2022-11-14T06:16:26;22.40;98.20
25668;DHT22;18003;-33.830;151.202;2022-11-14T06:18:56;22.40;97.60
25668;DHT22;18003;-33.830;151.202;2022-11-14T06:21:26;22.50;97.60
25668;DHT22;18003;-33.830;151.202;2022-11-14T06:23:56;22.50;97.80
25668;DHT22;18003;-33.830;151.202;2022-11-14T06:26:28;22.50;97.70
25668;DHT22;18003;-33.830;151.202;2022-11-14T06:28:56;22.60;97.00
25668;DHT22;18003;-33.830;151.202;2022-11-14T06:31:27;22.50;97.30
25668;DHT22;18003;-33.830;151.202;2022-11-14T06:33:57;22.50;96.40
25668;DHT22;18003;-33.830;151.202;2022-11-14T06:36:28;22.50;96.80
25668;DHT22;18003;-33.830;151.202;2022-11-14T06:38:58;22.50;96.70
25668;DHT22;18003;-33.830;151.202;2022-11-14T06:41:28;22.50;96.50
25668;DHT22;18003;-33.830;151.202;2022-11-14T06:43:58;22.40;96.30
25668;DHT22;18003;-33.830;151.202;2022-11-14T06:46:28;22.50;96.50
25668;DHT22;18003;-33.830;151.202;2022-11-14T06:48:58;22.50;97.20
25668;DHT22;18003;-33.830;151.202;2022-11-14T06:51:28;22.50;96.90
25668;DHT22;18003;-33.830;151.202;2022-11-14T06:53:59;22.50;96.70
25668;DHT22;18003;-33.830;151.202;2022-11-14T06:56:29;22.50;96.50
25668;DHT22;18003;-33.830;151.202;2022-11-14T06:58:59;22.50;97.00
25668;DHT22;18003;-33.830;151.202;2022-11-14T07:01:29;22.50;96.50
25668;DHT22;18003;-33.830;151.202;2022-11-14T07:03:59;22.40;96.50
25668;DHT22;18003;-33.830;151.202;2022-11-14T07:06:30;22.50;97.20
25668;DHT22;18003;-33.830;151.202;2022-11-14T07:09:00;22.40;96.90
25668;DHT22;18003;-33.830;151.202;2022-11-14T07:11:30;22.50;97.10
25668;DHT22;18003;-33.830;151.202;2022-11-14T07:14:01;22.40;96.80
25668;DHT22;18003;-33.830;151.202;2022-11-14T07:16:35;22.40;97.00
25668;DHT22;18003;-33.830;151.202;2022-11-14T07:19:06;22.40;96.90
25668;DHT22;18003;-33.830;151.202;2022-11-14T07:21:39;22.40;97.00
25668;DHT22;18003;-33.830;151.202;2022-11-14T07:24:09;22.40;97.20
25668;DHT22;18003;-33.830;151.202;2022-11-14T07:26:40;22.40;97.60
25668;DHT22;18003;-33.830;151.202;2022-11-14T07:29:10;22.40;97.90
25668;DHT22;18003;-33.830;151.202;2022-11-14T07:31:40;22.40;98.00
25668;DHT22;18003;-33.830;151.202;2022-11-14T07:34:10;22.40;97.90
25668;DHT22;18003;-33.830;151.202;2022-11-14T07:36:40;22.40;97.50
25668;DHT22;18003;-33.830;151.202;2022-11-14T07:39:10;22.40;97.60
25668;DHT22;18003;-33.830;151.202;2022-11-14T07:41:40;22.40;97.70
25668;DHT22;18003;-33.830;151.202;2022-11-14T07:44:10;22.40;97.60
25668;DHT22;18003;-33.830;151.202;2022-11-14T07:46:40;22.30;98.40
25668;DHT22;18003;-33.830;151.202;2022-11-14T07:49:10;22.30;98.00
25668;DHT22;18003;-33.830;151.202;2022-11-14T07:51:40;22.30;98.00
25668;DHT22;18003;-33.830;151.202;2022-11-14T07:54:13;22.30;98.20
25668;DHT22;18003;-33.830;151.202;2022-11-14T07:56:44;22.30;97.80
25668;DHT22;18003;-33.830;151.202;2022-11-14T07:59:14;22.20;97.70
25668;DHT22;18003;-33.830;151.202;2022-11-14T08:01:44;22.20;98.30
25668;DHT22;18003;-33.830;151.202;2022-11-14T08:04:14;22.20;98.20
25668;DHT22;18003;-33.830;151.202;2022-11-14T08:06:44;22.20;97.90
25668;DHT22;18003;-33.830;151.202;2022-11-14T08:09:14;22.20;98.20
25668;DHT22;18003;-33.830;151.202;2022-11-14T08:11:44;22.20;98.40
25668;DHT22;18003;-33.830;151.202;2022-11-14T08:14:17;22.20;98.70
25668;DHT22;18003;-33.830;151.202;2022-11-14T08:16:48;22.20;98.30
25668;DHT22;18003;-33.830;151.202;2022-11-14T08:19:19;22.20;98.70
25668;DHT22;18003;-33.830;151.202;2022-11-14T08:21:49;22.20;98.60
25668;DHT22;18003;-33.830;151.202;2022-11-14T08:24:20;22.20;98.60
25668;DHT22;18003;-33.830;151.202;2022-11-14T08:26:50;22.20;98.60
25668;DHT22;18003;-33.830;151.202;2022-11-14T08:29:20;22.20;98.20
25668;DHT22;18003;-33.830;151.202;2022-11-14T08:31:50;22.20;98.10
25668;DHT22;18003;-33.830;151.202;2022-11-14T08:34:20;22.20;97.80
25668;DHT22;18003;-33.830;151.202;2022-11-14T08:36:50;22.20;97.90
25668;DHT22;18003;-33.830;151.202;2022-11-14T08:39:20;22.10;98.10
25668;DHT22;18003;-33.830;151.202;2022-11-14T08:41:50;22.10;97.70
25668;DHT22;18003;-33.830;151.202;2022-11-14T08:44:20;22.10;97.50
25668;DHT22;18003;-33.830;151.202;2022-11-14T08:46:51;22.10;98.00
25668;DHT22;18003;-33.830;151.202;2022-11-14T08:49:21;22.10;97.50
25668;DHT22;18003;-33.830;151.202;2022-11-14T08:51:52;22.10;97.70
25668;DHT22;18003;-33.830;151.202;2022-11-14T08:54:22;22.00;97.60
25668;DHT22;18003;-33.830;151.202;2022-11-14T08:56:52;22.00;97.70
25668;DHT22;18003;-33.830;151.202;2022-11-14T08:59:22;22.00;98.00
25668;DHT22;18003;-33.830;151.202;2022-11-14T09:01:52;22.00;98.20
25668;DHT22;18003;-33.830;151.202;2022-11-14T09:04:22;22.00;97.80
25668;DHT22;18003;-33.830;151.202;2022-11-14T09:06:52;22.00;98.20
25668;DHT22;18003;-33.830;151.202;2022-11-14T09:09:22;22.00;98.30
25668;DHT22;18003;-33.830;151.202;2022-11-14T09:11:52;22.00;97.90
25668;DHT22;18003;-33.830;151.202;2022-11-14T09:14:22;22.00;98.10
25668;DHT22;18003;-33.830;151.202;2022-11-14T09:16:52;22.00;97.70
25668;DHT22;18003;-33.830;151.202;2022-11-14T09:19:22;22.00;98.30
25668;DHT22;18003;-33.830;151.202;2022-11-14T09:21:53;22.00;98.60
25668;DHT22;18003;-33.830;151.202;2022-11-14T09:24:23;22.00;98.70
25668;DHT22;18003;-33.830;151.202;2022-11-14T09:26:53;22.00;98.90
25668;DHT22;18003;-33.830;151.202;2022-11-14T09:29:23;21.90;99.20
25668;DHT22;18003;-33.830;151.202;2022-11-14T09:31:53;21.90;99.30
25668;DHT22;18003;-33.830;151.202;2022-11-14T09:34:24;21.90;99.20
25668;DHT22;18003;-33.830;151.202;2022-11-14T09:36:54;21.90;99.20
25668;DHT22;18003;-33.830;151.202;2022-11-14T09:39:24;21.90;99.50
25668;DHT22;18003;-33.830;151.202;2022-11-14T09:42:21;21.90;99.70
25668;DHT22;18003;-33.830;151.202;2022-11-14T09:45:00;21.90;99.40
25668;DHT22;18003;-33.830;151.202;2022-11-14T09:47:52;21.90;99.40
25668;DHT22;18003;-33.830;151.202;2022-11-14T09:50:21;21.90;99.50
25668;DHT22;18003;-33.830;151.202;2022-11-14T09:52:57;21.80;99.70
25668;DHT22;18003;-33.830;151.202;2022-11-14T09:55:29;21.80;99.90
25668;DHT22;18003;-33.830;151.202;2022-11-14T09:58:01;21.80;99.90
25668;DHT22;18003;-33.830;151.202;2022-11-14T10:00:43;21.80;99.90
25668;DHT22;18003;-33.830;151.202;2022-11-14T10:11:37;21.80;99.90
25668;DHT22;18003;-33.830;151.202;2022-11-14T10:14:26;21.80;99.90
25668;DHT22;18003;-33.830;151.202;2022-11-14T10:25:22;21.70;99.90
25668;DHT22;18003;-33.830;151.202;2022-11-14T10:28:16;21.70;99.90
25668;DHT22;18003;-33.830;151.202;2022-11-14T10:33:22;21.60;99.90
25668;DHT22;18003;-33.830;151.202;2022-11-14T10:36:00;21.60;99.90
25668;DHT22;18003;-33.830;151.202;2022-11-14T10:38:51;21.60;99.90
25668;DHT22;18003;-33.830;151.202;2022-11-14T10:41:16;21.60;99.90
25668;DHT22;18003;-33.830;151.202;2022-11-14T10:43:50;21.60;99.90
25668;DHT22;18003;-33.830;151.202;2022-11-14T10:46:23;21.60;99.90
25668;DHT22;18003;-33.830;151.202;2022-11-14T10:48:53;21.60;99.90
25668;DHT22;18003;-33.830;151.202;2022-11-14T10:51:34;21.60;99.90
25668;DHT22;18003;-33.830;151.202;2022-11-14T10:54:16;21.60;99.90
25668;DHT22;18003;-33.830;151.202;2022-11-14T10:56:51;21.50;99.90
25668;DHT22;18003;-33.830;151.202;2022-11-14T10:59:21;21.50;99.90
25668;DHT22;18003;-33.830;151.202;2022-11-14T11:01:53;21.40;99.90
25668;DHT22;18003;-33.830;151.202;2022-11-14T11:04:34;21.40;99.90
25668;DHT22;18003;-33.830;151.202;2022-11-14T11:07:17;21.40;99.90
25668;DHT22;18003;-33.830;151.202;2022-11-14T11:10:05;21.40;99.90
25668;DHT22;18003;-33.830;151.202;2022-11-14T11:12:53;21.40;99.90
25668;DHT22;18003;-33.830;151.202;2022-11-14T11:15:25;21.30;99.90
25668;DHT22;18003;-33.830;151.202;2022-11-14T11:20:34;21.30;99.90
25668;DHT22;18003;-33.830;151.202;2022-11-14T11:25:40;21.30;99.90
25668;DHT22;18003;-33.830;151.202;2022-11-14T11:28:15;21.30;99.90
25668;DHT22;18003;-33.830;151.202;2022-11-14T11:30:56;21.30;99.90
25668;DHT22;18003;-33.830;151.202;2022-11-14T11:33:30;21.30;99.90
25668;DHT22;18003;-33.830;151.202;2022-11-14T11:36:05;21.30;99.90
25668;DHT22;18003;-33.830;151.202;2022-11-14T11:38:35;21.30;99.90
25668;DHT22;18003;-33.830;151.202;2022-11-14T11:43:49;21.20;99.90
25668;DHT22;18003;-33.830;151.202;2022-11-14T11:46:24;21.20;99.90
25668;DHT22;18003;-33.830;151.202;2022-11-14T11:48:55;21.20;99.90
25668;DHT22;18003;-33.830;151.202;2022-11-14T11:51:26;21.20;99.90
25668;DHT22;18003;-33.830;151.202;2022-11-14T11:53:59;21.20;99.90
25668;DHT22;18003;-33.830;151.202;2022-11-14T11:56:31;21.20;99.90
25668;DHT22;18003;-33.830;151.202;2022-11-14T11:59:45;21.20;99.90
25668;DHT22;18003;-33.830;151.202;2022-11-14T12:01:36;21.20;99.90
25668;DHT22;18003;-33.830;151.202;2022-11-14T12:04:07;21.20;99.90
25668;DHT22;18003;-33.830;151.202;2022-11-14T12:06:42;21.20;99.90
25668;DHT22;18003;-33.830;151.202;2022-11-14T12:09:21;21.20;99.90
25668;DHT22;18003;-33.830;151.202;2022-11-14T12:12:02;21.20;99.90
25668;DHT22;18003;-33.830;151.202;2022-11-14T12:14:34;21.10;99.90
25668;DHT22;18003;-33.830;151.202;2022-11-14T12:17:21;21.10;99.90
25668;DHT22;18003;-33.830;151.202;2022-11-14T12:20:05;21.10;99.90
25668;DHT22;18003;-33.830;151.202;2022-11-14T12:22:48;21.10;99.90
25668;DHT22;18003;-33.830;151.202;2022-11-14T12:25:33;21.10;99.90
25668;DHT22;18003;-33.830;151.202;2022-11-14T12:28:14;21.10;99.90
25668;DHT22;18003;-33.830;151.202;2022-11-14T12:30:41;21.10;99.90
25668;DHT22;18003;-33.830;151.202;2022-11-14T12:36:02;21.10;99.90
25668;DHT22;18003;-33.830;151.202;2022-11-14T12:38:42;21.10;99.90
25668;DHT22;18003;-33.830;151.202;2022-11-14T12:41:22;21.10;99.90
25668;DHT22;18003;-33.830;151.202;2022-11-14T12:43:51;21.10;99.90
25668;DHT22;18003;-33.830;151.202;2022-11-14T12:46:21;21.10;99.90
25668;DHT22;18003;-33.830;151.202;2022-11-14T12:48:51;21.00;99.90
25668;DHT22;18003;-33.830;151.202;2022-11-14T12:54:08;21.00;99.90
25668;DHT22;18003;-33.830;151.202;2022-11-14T12:56:41;21.00;99.90
25668;DHT22;18003;-33.830;151.202;2022-11-14T12:59:31;20.90;99.90
25668;DHT22;18003;-33.830;151.202;2022-11-14T13:07:47;20.90;99.90
25668;DHT22;18003;-33.830;151.202;2022-11-14T13:10:22;20.90;99.90
25668;DHT22;18003;-33.830;151.202;2022-11-14T13:13:12;20.90;99.90
25668;DHT22;18003;-33.830;151.202;2022-11-14T13:15:56;20.90;99.90
25668;DHT22;18003;-33.830;151.202;2022-11-14T13:19:02;20.90;99.90
25668;DHT22;18003;-33.830;151.202;2022-11-14T13:27:34;20.90;99.90
25668;DHT22;18003;-33.830;151.202;2022-11-14T13:30:06;20.90;99.90
25668;DHT22;18003;-33.830;151.202;2022-11-14T13:35:37;20.90;99.90
25668;DHT22;18003;-33.830;151.202;2022-11-14T13:49:38;20.90;99.90
25668;DHT22;18003;-33.830;151.202;2022-11-14T13:52:04;20.80;99.90
25668;DHT22;18003;-33.830;151.202;2022-11-14T13:54:34;20.80;99.90
25668;DHT22;18003;-33.830;151.202;2022-11-14T14:00:14;20.80;99.90
25668;DHT22;18003;-33.830;151.202;2022-11-14T14:14:17;20.80;99.90
25668;DHT22;18003;-33.830;151.202;2022-11-14T14:17:08;20.70;99.90
25668;DHT22;18003;-33.830;151.202;2022-11-14T14:25:18;20.70;99.90
25668;DHT22;18003;-33.830;151.202;2022-11-14T14:31:11;20.70;99.90
25668;DHT22;18003;-33.830;151.202;2022-11-14T14:33:46;20.70;99.90
25668;DHT22;18003;-33.830;151.202;2022-11-14T14:36:23;20.70;99.90
25668;DHT22;18003;-33.830;151.202;2022-11-14T14:41:45;20.70;99.90
25668;DHT22;18003;-33.830;151.202;2022-11-14T14:47:29;20.60;99.90
25668;DHT22;18003;-33.830;151.202;2022-11-14T14:49:38;20.60;99.90
25668;DHT22;18003;-33.830;151.202;2022-11-14T14:52:19;20.60;99.90
25668;DHT22;18003;-33.830;151.202;2022-11-14T14:54:55;20.60;99.90
25668;DHT22;18003;-33.830;151.202;2022-11-14T14:57:25;20.60;99.90
25668;DHT22;18003;-33.830;151.202;2022-11-14T15:00:06;20.60;99.90
25668;DHT22;18003;-33.830;151.202;2022-11-14T15:02:37;20.60;99.90
25668;DHT22;18003;-33.830;151.202;2022-11-14T15:05:08;20.50;99.90
25668;DHT22;18003;-33.830;151.202;2022-11-14T15:07:39;20.50;99.90
25668;DHT22;18003;-33.830;151.202;2022-11-14T15:10:17;20.50;99.90
25668;DHT22;18003;-33.830;151.202;2022-11-14T15:12:40;20.50;99.90
25668;DHT22;18003;-33.830;151.202;2022-11-14T15:15:12;20.50;99.90
25668;DHT22;18003;-33.830;151.202;2022-11-14T15:17:43;20.50;99.90
25668;DHT22;18003;-33.830;151.202;2022-11-14T15:20:27;20.50;99.90
25668;DHT22;18003;-33.830;151.202;2022-11-14T15:23:25;20.50;99.90
25668;DHT22;18003;-33.830;151.202;2022-11-14T15:25:35;20.40;99.90
25668;DHT22;18003;-33.830;151.202;2022-11-14T15:28:16;20.40;99.90
25668;DHT22;18003;-33.830;151.202;2022-11-14T15:31:00;20.40;99.90
25668;DHT22;18003;-33.830;151.202;2022-11-14T15:33:33;20.50;99.90
25668;DHT22;18003;-33.830;151.202;2022-11-14T15:36:08;20.40;99.90
25668;DHT22;18003;-33.830;151.202;2022-11-14T15:38:38;20.40;99.90
25668;DHT22;18003;-33.830;151.202;2022-11-14T15:41:23;20.40;99.90
25668;DHT22;18003;-33.830;151.202;2022-11-14T15:43:51;20.40;99.90
25668;DHT22;18003;-33.830;151.202;2022-11-14T15:49:20;20.40;99.90
25668;DHT22;18003;-33.830;151.202;2022-11-14T15:54:29;20.30;99.90
25668;DHT22;18003;-33.830;151.202;2022-11-14T15:57:05;20.30;99.90
25668;DHT22;18003;-33.830;151.202;2022-11-14T15:59:32;20.30;99.90
25668;DHT22;18003;-33.830;151.202;2022-11-14T16:04:46;20.30;99.90
25668;DHT22;18003;-33.830;151.202;2022-11-14T16:07:17;20.30;99.90
25668;DHT22;18003;-33.830;151.202;2022-11-14T16:09:47;20.30;99.90
25668;DHT22;18003;-33.830;151.202;2022-11-14T16:12:17;20.30;99.90
25668;DHT22;18003;-33.830;151.202;2022-11-14T16:14:47;20.30;99.90
25668;DHT22;18003;-33.830;151.202;2022-11-14T16:17:18;20.30;99.90
25668;DHT22;18003;-33.830;151.202;2022-11-14T16:19:48;20.30;99.90
25668;DHT22;18003;-33.830;151.202;2022-11-14T16:22:18;20.30;99.90
25668;DHT22;18003;-33.830;151.202;2022-11-14T16:24:48;20.30;99.90
25668;DHT22;18003;-33.830;151.202;2022-11-14T16:27:18;20.30;99.90
25668;DHT22;18003;-33.830;151.202;2022-11-14T16:29:48;20.20;99.90
25668;DHT22;18003;-33.830;151.202;2022-11-14T16:32:18;20.20;99.90
25668;DHT22;18003;-33.830;151.202;2022-11-14T16:34:50;20.20;99.90
25668;DHT22;18003;-33.830;151.202;2022-11-14T16:37:20;20.20;99.90
25668;DHT22;18003;-33.830;151.202;2022-11-14T16:39:52;20.20;99.90
25668;DHT22;18003;-33.830;151.202;2022-11-14T16:42:22;20.20;99.90
25668;DHT22;18003;-33.830;151.202;2022-11-14T16:44:52;20.20;99.90
25668;DHT22;18003;-33.830;151.202;2022-11-14T16:47:23;20.20;99.90
25668;DHT22;18003;-33.830;151.202;2022-11-14T16:49:53;20.20;99.90
25668;DHT22;18003;-33.830;151.202;2022-11-14T16:52:23;20.20;99.90
25668;DHT22;18003;-33.830;151.202;2022-11-14T16:54:53;20.10;99.90